Willard, Montana
Current Conditions -  °F | °C
As of 7:51 AM on Thursday 23 Oct 2014 (Local Time) from KBHK Reporting Station
Clear Clear  
Wind Chill: 30°   Ceiling: Unl
Heat Index: 35°   Visibility: 10mi
Dew Point: 26°   Wind: 6mph
Humidity: 70%   Direction: 120°ESE
Pressure: 29.91"   Gusts: NA
Location:  46.19°N, 104.38°W
Report Text: KBHK 231351Z AUTO 12005KT 10SM CLR 02/M03 A2991 RMK AO2 SLP144 T00171033
Loading
Personal Weather Stations






























Interactive Weather Map
Tropical Storm Tracking
New forecast layout! Learn more

10-Day Weather Forecast

Advertisements
Track Severe Weather on mobile